Time;durP1;ratioP1;P1;durP2;ratioP2;P2;SDS_P1;SDS_P2;PMS_P1;PMS_P2;Temp;Humidity;BMP_temperature;BMP_pressure;BME280_temperature;BME280_humidity;BME280_pressure;Samples;Min_cycle;Max_cycle;Signal;HPM_P1;HPM_P2
2023/09/04 00:01:38;;;;;;;3.67;3.33;;;18.40;99.90;;;;;;5012730;28;20172;-70
2023/09/04 00:04:05;;;;;;;4.53;3.80;;;18.40;99.90;;;;;;5012521;28;20168;-70
2023/09/04 00:06:30;;;;;;;3.93;3.53;;;18.30;99.90;;;;;;5012597;28;20504;-70
2023/09/04 00:08:59;;;;;;;3.50;3.20;;;18.30;99.90;;;;;;5012592;28;20920;-70
2023/09/04 00:11:26;;;;;;;3.53;3.23;;;18.20;99.90;;;;;;5012212;28;20226;-70
2023/09/04 00:13:52;;;;;;;3.60;3.17;;;18.30;99.90;;;;;;5012515;28;20457;-70
2023/09/04 00:16:18;;;;;;;4.27;3.63;;;18.20;99.90;;;;;;5011895;28;20431;-71
2023/09/04 00:18:44;;;;;;;3.43;3.13;;;18.10;99.90;;;;;;5012193;28;20161;-71
2023/09/04 00:21:09;;;;;;;3.97;3.43;;;18.10;99.90;;;;;;5011066;28;20164;-71
2023/09/04 00:23:35;;;;;;;5.17;3.97;;;18.10;99.90;;;;;;5012755;28;20172;-71
2023/09/04 00:26:01;;;;;;;4.33;3.93;;;18.20;99.90;;;;;;5012240;28;20191;-71
2023/09/04 00:28:26;;;;;;;6.73;3.53;;;18.10;99.90;;;;;;5012123;28;20611;-70
2023/09/04 00:30:52;;;;;;;5.10;3.63;;;18.10;99.90;;;;;;5012128;28;20168;-70
2023/09/04 00:33:17;;;;;;;3.60;3.30;;;18.10;99.90;;;;;;5011709;28;20219;-70
2023/09/04 00:35:43;;;;;;;3.23;3.00;;;18.10;99.90;;;;;;5011714;28;20168;-71
2023/09/04 00:38:09;;;;;;;4.10;3.80;;;18.10;99.90;;;;;;5011849;28;20168;-70
2023/09/04 00:40:34;;;;;;;5.57;3.70;;;18.10;99.90;;;;;;5012338;28;20168;-72
2023/09/04 00:43:00;;;;;;;4.53;3.63;;;18.10;99.90;;;;;;5011665;28;20176;-71
2023/09/04 00:45:26;;;;;;;4.07;3.70;;;18.10;99.90;;;;;;5010417;28;20175;-71
2023/09/04 00:47:52;;;;;;;6.83;3.90;;;18.10;99.90;;;;;;5011373;28;20192;-70
2023/09/04 00:50:24;;;;;;;4.80;3.37;;;18.10;99.90;;;;;;5012042;28;20176;-71
2023/09/04 00:52:55;;;;;;;4.73;3.77;;;18.10;99.90;;;;;;5011462;28;20192;-71
2023/09/04 00:55:21;;;;;;;3.90;3.60;;;18.10;99.90;;;;;;5012039;28;20835;-70
2023/09/04 00:57:48;;;;;;;3.90;3.60;;;18.10;99.90;;;;;;5011378;28;20423;-69
2023/09/04 01:00:14;;;;;;;3.63;3.30;;;18.10;99.90;;;;;;5012026;28;20506;-70
2023/09/04 01:02:41;;;;;;;4.17;3.57;;;18.10;99.90;;;;;;5010779;28;20415;-71
2023/09/04 01:05:07;;;;;;;4.60;4.20;;;18.00;99.90;;;;;;5011389;28;20665;-70
2023/09/04 01:07:34;;;;;;;4.00;3.60;;;17.90;99.90;;;;;;5011093;28;20526;-70
2023/09/04 01:10:02;;;;;;;3.70;3.37;;;17.90;99.90;;;;;;5010221;28;20407;-70
2023/09/04 01:13:04;;;;;;;5.03;4.37;;;18.00;99.90;;;;;;5011280;28;20545;-70
2023/09/04 01:15:31;;;;;;;4.30;3.70;;;18.00;99.90;;;;;;4994422;28;20855;-71
2023/09/04 01:17:58;;;;;;;4.40;4.00;;;18.00;99.90;;;;;;5010372;28;20484;-71
2023/09/04 01:20:29;;;;;;;4.30;3.67;;;18.00;99.90;;;;;;5010555;28;20403;-70
2023/09/04 01:22:57;;;;;;;4.00;3.43;;;17.90;99.90;;;;;;5011247;28;20475;-69
2023/09/04 01:25:33;;;;;;;4.47;3.90;;;17.80;99.90;;;;;;5011177;28;20419;-71
2023/09/04 01:28:09;;;;;;;4.10;3.70;;;17.80;99.90;;;;;;5010950;28;20434;-71
2023/09/04 01:31:08;;;;;;;5.53;3.60;;;17.80;99.90;;;;;;5011314;28;20390;-71
2023/09/04 01:33:40;;;;;;;4.30;3.90;;;17.80;99.90;;;;;;5007580;28;20518;-70
2023/09/04 01:36:10;;;;;;;5.23;4.07;;;17.90;99.90;;;;;;5010952;28;20441;-71
2023/09/04 01:38:37;;;;;;;6.57;4.20;;;17.90;99.90;;;;;;5010791;28;20934;-71
2023/09/04 01:41:06;;;;;;;4.00;3.60;;;17.90;99.90;;;;;;5011075;28;20421;-71
2023/09/04 01:43:32;;;;;;;4.90;3.93;;;17.90;99.90;;;;;;5010616;28;20419;-70
2023/09/04 01:45:58;;;;;;;4.90;3.93;;;17.90;99.90;;;;;;4993019;28;21010;-70
2023/09/04 01:48:23;;;;;;;4.60;4.10;;;17.90;99.90;;;;;;5010529;28;20487;-70
2023/09/04 01:50:49;;;;;;;6.10;3.80;;;17.80;99.90;;;;;;5010671;28;20399;-71
2023/09/04 01:53:14;;;;;;;5.60;3.40;;;17.80;99.90;;;;;;5010762;28;20677;-69
2023/09/04 01:55:40;;;;;;;3.27;2.97;;;17.80;99.90;;;;;;5011207;28;20567;-73
2023/09/04 01:58:05;;;;;;;4.57;4.17;;;17.80;99.90;;;;;;5010216;28;20164;-75
2023/09/04 02:00:31;;;;;;;4.13;3.73;;;17.80;99.90;;;;;;5010821;28;20513;-74
2023/09/04 02:02:56;;;;;;;5.83;3.80;;;17.80;99.90;;;;;;5010312;28;20570;-74
2023/09/04 02:05:22;;;;;;;5.60;3.60;;;17.80;99.90;;;;;;5010772;28;20178;-73
2023/09/04 02:07:47;;;;;;;4.37;3.77;;;17.80;99.90;;;;;;5010411;28;20203;-74
2023/09/04 02:10:14;;;;;;;4.60;4.20;;;17.80;99.90;;;;;;5010465;28;20172;-73
2023/09/04 02:12:39;;;;;;;4.47;3.80;;;17.70;99.90;;;;;;5010301;28;20278;-74
2023/09/04 02:15:05;;;;;;;4.30;3.90;;;17.70;99.90;;;;;;5010586;28;20470;-74
2023/09/04 02:17:31;;;;;;;4.67;3.70;;;17.70;99.90;;;;;;5010206;28;20191;-73
2023/09/04 02:19:59;;;;;;;5.03;4.20;;;17.70;99.90;;;;;;5010785;28;20399;-73
2023/09/04 02:22:24;;;;;;;4.70;3.97;;;17.70;99.90;;;;;;5010994;28;20237;-74
2023/09/04 02:24:50;;;;;;;9.63;4.60;;;17.80;99.90;;;;;;5014329;28;20406;-74
2023/09/04 02:27:16;;;;;;;4.93;3.97;;;17.70;99.90;;;;;;5013938;28;20682;-73
2023/09/04 02:29:41;;;;;;;5.30;4.60;;;17.70;99.90;;;;;;5014355;28;20160;-73
2023/09/04 02:32:07;;;;;;;6.50;4.30;;;17.60;99.90;;;;;;5013906;28;20207;-74
2023/09/04 02:34:32;;;;;;;6.17;4.40;;;17.60;99.90;;;;;;5014494;28;20191;-72
2023/09/04 02:36:58;;;;;;;5.23;3.90;;;17.60;99.90;;;;;;5014546;28;20282;-70
2023/09/04 02:39:24;;;;;;;4.00;3.60;;;17.50;99.90;;;;;;5014428;28;20247;-71
2023/09/04 02:41:50;;;;;;;5.83;4.50;;;17.50;99.90;;;;;;5014379;28;20267;-72
2023/09/04 02:44:15;;;;;;;5.30;4.80;;;17.40;99.90;;;;;;5014134;28;20171;-70
2023/09/04 02:46:41;;;;;;;3.93;3.63;;;17.30;99.90;;;;;;5014078;28;20545;-69
2023/09/04 02:49:06;;;;;;;4.93;4.43;;;17.40;99.90;;;;;;5014084;28;20172;-71
2023/09/04 02:51:32;;;;;;;5.60;5.10;;;17.40;99.90;;;;;;5014221;28;20196;-70
2023/09/04 02:53:57;;;;;;;3.83;3.53;;;17.40;99.90;;;;;;5013963;28;20174;-70
2023/09/04 02:56:23;;;;;;;5.27;4.70;;;17.40;99.90;;;;;;5013780;28;20183;-71
2023/09/04 02:58:49;;;;;;;4.80;4.37;;;17.40;99.90;;;;;;5013339;28;20164;-69
2023/09/04 03:01:16;;;;;;;4.70;4.20;;;17.40;99.90;;;;;;5014284;28;20203;-70
2023/09/04 03:03:41;;;;;;;5.00;4.13;;;17.40;99.90;;;;;;5013744;28;20230;-70
2023/09/04 03:06:08;;;;;;;4.40;3.87;;;17.40;99.90;;;;;;5013752;28;20427;-69
2023/09/04 03:08:34;;;;;;;5.47;4.57;;;17.40;99.90;;;;;;5013643;28;20170;-70
2023/09/04 03:10:59;;;;;;;4.57;3.97;;;17.30;99.90;;;;;;5013631;28;20413;-69
2023/09/04 03:13:25;;;;;;;5.57;4.97;;;17.40;99.90;;;;;;5013211;28;20227;-71
2023/09/04 03:15:50;;;;;;;5.00;4.37;;;17.40;99.90;;;;;;5013488;28;20228;-69
2023/09/04 03:18:16;;;;;;;5.80;5.20;;;17.30;99.90;;;;;;5012847;28;20207;-70
2023/09/04 03:20:42;;;;;;;5.20;4.00;;;17.30;99.90;;;;;;5013411;28;20219;-70
2023/09/04 03:23:08;;;;;;;4.80;3.83;;;17.30;99.90;;;;;;5013425;28;20266;-71
2023/09/04 03:25:35;;;;;;;5.50;5.00;;;17.40;99.90;;;;;;5013680;28;20531;-72
2023/09/04 03:28:01;;;;;;;5.10;4.60;;;17.30;99.90;;;;;;5013484;28;20179;-70
2023/09/04 03:30:27;;;;;;;5.47;4.80;;;17.30;99.90;;;;;;5013259;28;20410;-70
2023/09/04 03:32:53;;;;;;;4.60;4.20;;;17.20;99.90;;;;;;5012524;28;20277;-69
2023/09/04 03:35:18;;;;;;;4.93;4.50;;;17.20;99.90;;;;;;5013319;28;20646;-70
2023/09/04 03:37:44;;;;;;;5.83;4.60;;;17.10;99.90;;;;;;5012965;28;20294;-70
2023/09/04 03:40:23;;;;;;;5.53;5.00;;;17.10;99.90;;;;;;5013459;28;20640;-69
2023/09/04 03:42:49;;;;;;;4.60;4.20;;;17.20;99.90;;;;;;5012870;28;20190;-71
2023/09/04 03:45:15;;;;;;;6.47;4.30;;;17.10;99.90;;;;;;5013065;28;20410;-70
2023/09/04 03:47:44;;;;;;;4.73;4.33;;;17.10;99.90;;;;;;5013076;28;20500;-70
2023/09/04 03:50:13;;;;;;;4.97;4.47;;;17.00;99.90;;;;;;5012832;28;20428;-69
2023/09/04 03:52:39;;;;;;;5.60;5.10;;;16.90;99.90;;;;;;5012964;28;20444;-70
2023/09/04 03:55:06;;;;;;;6.40;4.67;;;16.90;99.90;;;;;;5012523;28;20936;-70
2023/09/04 03:57:32;;;;;;;5.40;5.00;;;16.90;99.90;;;;;;5012431;28;20430;-69
2023/09/04 03:59:57;;;;;;;5.87;5.37;;;17.00;99.90;;;;;;5012774;28;20952;-71
2023/09/04 04:02:23;;;;;;;5.90;5.30;;;17.00;99.90;;;;;;5012858;28;20598;-71
2023/09/04 04:04:52;;;;;;;5.27;4.80;;;16.90;99.90;;;;;;5012800;28;20200;-70
2023/09/04 04:07:18;;;;;;;4.70;4.30;;;16.80;99.90;;;;;;5012439;28;20270;-71
2023/09/04 04:09:44;;;;;;;5.20;4.10;;;16.80;99.90;;;;;;5012688;28;20412;-71
2023/09/04 04:12:10;;;;;;;5.40;4.90;;;16.90;99.90;;;;;;5012071;28;20194;-71
2023/09/04 04:14:36;;;;;;;7.43;4.60;;;16.80;99.90;;;;;;5012723;28;20778;-69
2023/09/04 04:17:01;;;;;;;6.23;5.67;;;16.80;99.90;;;;;;5011918;28;20426;-70
2023/09/04 04:19:28;;;;;;;8.87;5.20;;;16.70;99.90;;;;;;5011790;28;20653;-69
2023/09/04 04:21:53;;;;;;;4.90;4.50;;;16.70;99.90;;;;;;5012312;28;20255;-71
2023/09/04 04:24:20;;;;;;;4.77;4.30;;;16.80;99.90;;;;;;5012115;28;20508;-70
2023/09/04 04:26:46;;;;;;;5.47;4.97;;;16.80;99.90;;;;;;5012489;28;20551;-69
2023/09/04 04:29:11;;;;;;;6.93;6.13;;;16.70;99.90;;;;;;5012248;28;20543;-71
2023/09/04 04:31:38;;;;;;;6.43;5.63;;;16.70;99.90;;;;;;5006590;28;20720;-70
2023/09/04 04:34:03;;;;;;;5.07;4.57;;;16.60;99.90;;;;;;5011760;28;20170;-69
2023/09/04 04:36:29;;;;;;;6.20;5.00;;;16.60;99.90;;;;;;5011834;28;20447;-70
2023/09/04 04:38:55;;;;;;;5.70;5.20;;;16.60;99.90;;;;;;5011860;28;20166;-70
2023/09/04 04:41:21;;;;;;;7.23;5.30;;;16.50;99.90;;;;;;5011866;28;20773;-70
2023/09/04 04:43:46;;;;;;;5.57;5.07;;;16.60;99.90;;;;;;5011598;28;20598;-71
2023/09/04 04:46:14;;;;;;;5.20;4.80;;;16.60;99.90;;;;;;5010917;28;20217;-70
2023/09/04 04:48:39;;;;;;;7.90;5.83;;;16.60;99.90;;;;;;5011729;28;20175;-71
2023/09/04 04:51:05;;;;;;;5.27;4.80;;;16.60;99.90;;;;;;5010277;28;20492;-70
2023/09/04 04:53:31;;;;;;;5.20;4.70;;;16.70;99.90;;;;;;5011481;28;20658;-71
2023/09/04 04:55:56;;;;;;;5.80;5.07;;;16.70;99.90;;;;;;5011736;28;20190;-69
2023/09/04 04:58:22;;;;;;;6.23;5.63;;;16.60;99.90;;;;;;5011126;28;20174;-71
2023/09/04 05:00:48;;;;;;;5.50;4.90;;;16.60;99.90;;;;;;5011464;28;20249;-69
2023/09/04 05:03:14;;;;;;;5.93;5.40;;;16.60;99.90;;;;;;5011372;28;20275;-70
2023/09/04 05:05:46;;;;;;;7.00;5.80;;;16.60;99.90;;;;;;5011963;28;20922;-70
2023/09/04 05:08:12;;;;;;;5.83;5.10;;;16.60;99.90;;;;;;5011499;28;20435;-70
2023/09/04 05:10:38;;;;;;;5.83;5.23;;;16.60;99.90;;;;;;5011152;28;20415;-70
2023/09/04 05:13:03;;;;;;;6.37;5.77;;;16.70;99.90;;;;;;5011046;28;20200;-69
2023/09/04 05:15:29;;;;;;;7.27;6.27;;;16.60;99.90;;;;;;5010083;28;20485;-71
2023/09/04 05:17:54;;;;;;;5.30;4.90;;;16.70;99.90;;;;;;5010935;28;20259;-70
2023/09/04 05:20:21;;;;;;;5.83;5.33;;;16.60;99.90;;;;;;5011028;28;20320;-69
2023/09/04 05:22:46;;;;;;;7.90;4.70;;;16.70;99.90;;;;;;5009850;28;20282;-69
2023/09/04 05:25:12;;;;;;;6.00;5.10;;;16.70;99.90;;;;;;5011154;28;20528;-70
2023/09/04 05:27:38;;;;;;;5.37;4.93;;;16.70;99.90;;;;;;5011104;28;20194;-70
2023/09/04 05:30:04;;;;;;;5.80;5.03;;;16.80;99.90;;;;;;5011241;28;20222;-70
2023/09/04 05:32:30;;;;;;;5.80;5.20;;;16.80;99.90;;;;;;5010919;28;20546;-70
2023/09/04 05:34:56;;;;;;;5.87;4.83;;;16.90;99.90;;;;;;5010718;28;20411;-70
2023/09/04 05:37:22;;;;;;;6.90;6.20;;;16.90;99.90;;;;;;5010810;28;20688;-70
2023/09/04 05:39:49;;;;;;;7.23;6.40;;;16.90;99.90;;;;;;5009876;28;20280;-70
2023/09/04 05:42:14;;;;;;;6.00;5.50;;;17.00;99.90;;;;;;5010804;28;20556;-71
2023/09/04 05:44:40;;;;;;;5.97;5.37;;;16.90;99.90;;;;;;5011098;28;20177;-71
2023/09/04 05:47:06;;;;;;;5.43;4.93;;;16.90;99.90;;;;;;5010914;28;20227;-71
2023/09/04 05:49:32;;;;;;;5.70;5.07;;;17.00;99.90;;;;;;5010655;28;20180;-70
2023/09/04 05:51:57;;;;;;;13.17;6.00;;;17.00;99.90;;;;;;5010880;28;20457;-71
2023/09/04 05:54:23;;;;;;;6.00;5.40;;;17.10;99.90;;;;;;5010484;28;20169;-70
2023/09/04 05:56:49;;;;;;;5.07;4.57;;;17.10;99.90;;;;;;5010493;28;20214;-70
2023/09/04 05:59:15;;;;;;;6.20;5.60;;;17.10;99.90;;;;;;5010687;28;20176;-70
2023/09/04 06:01:40;;;;;;;5.10;4.70;;;17.20;99.90;;;;;;5010816;28;20464;-70
2023/09/04 06:04:06;;;;;;;6.43;5.83;;;17.20;99.90;;;;;;5010682;28;20179;-70
2023/09/04 06:06:31;;;;;;;5.70;5.20;;;17.30;99.90;;;;;;5010047;28;20199;-72
2023/09/04 06:08:57;;;;;;;5.83;5.33;;;17.40;99.90;;;;;;5010977;28;20171;-70
2023/09/04 06:11:23;;;;;;;5.60;5.07;;;17.40;99.90;;;;;;5010766;28;21442;-70
2023/09/04 06:13:49;;;;;;;5.90;5.40;;;17.40;99.90;;;;;;5009873;28;20165;-70
2023/09/04 06:16:17;;;;;;;5.60;5.10;;;17.60;99.90;;;;;;5011772;28;20209;-71
2023/09/04 06:18:42;;;;;;;7.67;5.60;;;17.60;99.90;;;;;;5011532;28;20414;-71
2023/09/04 06:21:08;;;;;;;5.40;4.90;;;17.70;99.90;;;;;;5012650;28;20488;-72
2023/09/04 06:23:34;;;;;;;6.60;5.87;;;17.80;99.90;;;;;;5011261;28;20181;-71
2023/09/04 06:26:03;;;;;;;6.57;5.70;;;17.90;99.90;;;;;;5010850;28;20431;-71
2023/09/04 06:28:28;;;;;;;5.07;4.67;;;17.90;99.90;;;;;;5011036;28;20168;-70
2023/09/04 06:30:56;;;;;;;6.10;5.60;;;18.00;99.90;;;;;;5010967;28;20406;-70
2023/09/04 06:33:25;;;;;;;7.00;6.30;;;18.10;99.90;;;;;;5010367;28;20191;-71
2023/09/04 06:35:51;;;;;;;8.17;6.30;;;18.20;99.90;;;;;;5010612;28;20407;-71
2023/09/04 06:38:17;;;;;;;7.13;6.53;;;18.30;99.90;;;;;;5011100;28;20375;-71
2023/09/04 06:40:42;;;;;;;9.83;6.63;;;18.30;99.90;;;;;;5010665;28;20874;-71
2023/09/04 06:43:09;;;;;;;7.10;6.40;;;18.40;99.90;;;;;;5010846;28;20259;-70
2023/09/04 06:45:37;;;;;;;6.10;5.50;;;18.50;99.90;;;;;;5009251;28;20286;-70
2023/09/04 06:48:06;;;;;;;6.23;5.63;;;18.60;99.90;;;;;;5010923;28;20486;-69
2023/09/04 06:50:32;;;;;;;7.60;6.07;;;18.70;99.90;;;;;;5010676;28;20450;-71
2023/09/04 06:52:57;;;;;;;9.20;6.40;;;18.80;99.90;;;;;;5025646;28;20454;-70
2023/09/04 06:55:23;;;;;;;6.57;6.03;;;18.80;99.90;;;;;;5010298;28;20168;-70
2023/09/04 06:57:48;;;;;;;6.57;5.50;;;18.70;99.90;;;;;;5010321;28;20559;-71
2023/09/04 07:00:14;;;;;;;7.67;5.47;;;18.90;99.90;;;;;;5010417;28;20661;-71
2023/09/04 07:02:40;;;;;;;7.07;5.67;;;18.80;99.90;;;;;;5010598;28;20164;-71
2023/09/04 07:05:08;;;;;;;7.93;6.03;;;18.80;99.90;;;;;;5010408;28;20203;-72
2023/09/04 07:07:37;;;;;;;17.97;8.03;;;19.00;99.90;;;;;;5009933;28;20344;-70
2023/09/04 07:10:04;;;;;;;12.67;7.40;;;18.90;99.90;;;;;;5028125;28;20426;-71
2023/09/04 07:12:32;;;;;;;17.70;8.43;;;19.00;99.90;;;;;;5013753;28;20481;-71
2023/09/04 07:14:57;;;;;;;14.43;8.17;;;19.20;99.90;;;;;;5013875;28;20413;-70
2023/09/04 07:17:23;;;;;;;12.43;7.50;;;19.40;99.90;;;;;;5012841;28;20796;-71
2023/09/04 07:19:48;;;;;;;7.13;6.20;;;19.50;99.90;;;;;;5013182;28;20168;-71
2023/09/04 07:22:14;;;;;;;9.83;6.50;;;19.60;99.90;;;;;;5012465;28;20665;-70
2023/09/04 07:24:39;;;;;;;6.83;6.13;;;19.50;99.90;;;;;;5012828;28;20183;-71
2023/09/04 07:27:05;;;;;;;6.90;6.30;;;19.40;99.90;;;;;;5013652;28;20203;-71
2023/09/04 07:29:30;;;;;;;5.87;5.00;;;19.50;99.90;;;;;;5011229;28;20168;-71
2023/09/04 07:31:56;;;;;;;6.83;6.23;;;19.40;99.90;;;;;;5013622;28;20199;-71
2023/09/04 07:34:22;;;;;;;5.90;5.40;;;19.50;99.90;;;;;;5013592;28;20168;-71
2023/09/04 07:36:47;;;;;;;6.00;5.20;;;19.60;99.90;;;;;;5013328;28;20204;-73
2023/09/04 07:39:13;;;;;;;5.83;5.27;;;19.80;99.90;;;;;;5013229;28;20164;-71
2023/09/04 07:41:38;;;;;;;6.57;5.57;;;19.90;99.90;;;;;;5013334;28;20171;-70
2023/09/04 07:44:04;;;;;;;6.80;5.47;;;20.10;99.90;;;;;;5013368;28;20160;-71
2023/09/04 07:46:30;;;;;;;5.77;4.77;;;20.30;99.90;;;;;;5013045;28;20563;-71
2023/09/04 07:48:56;;;;;;;6.10;5.50;;;20.40;99.90;;;;;;5013073;28;20168;-71
2023/09/04 07:51:21;;;;;;;6.53;5.57;;;20.60;99.90;;;;;;5013098;28;20195;-72
2023/09/04 07:53:47;;;;;;;5.37;4.90;;;20.60;99.90;;;;;;5013653;28;20172;-71
2023/09/04 07:56:12;;;;;;;5.10;4.70;;;20.60;99.90;;;;;;5012806;28;20206;-70
2023/09/04 07:58:39;;;;;;;8.37;4.90;;;20.90;99.90;;;;;;5013106;28;20247;-71
2023/09/04 08:01:09;;;;;;;5.23;4.73;;;21.00;99.90;;;;;;5012760;28;20164;-71
2023/09/04 08:03:35;;;;;;;5.90;4.30;;;21.20;99.90;;;;;;5012506;28;20434;-70
2023/09/04 08:06:00;;;;;;;5.23;4.60;;;21.30;99.90;;;;;;5012840;28;20422;-72
2023/09/04 08:08:26;;;;;;;7.40;4.67;;;21.20;99.90;;;;;;5013050;28;20179;-71
2023/09/04 08:10:52;;;;;;;5.43;4.90;;;21.30;99.90;;;;;;5012575;28;20507;-71
2023/09/04 08:13:18;;;;;;;5.07;4.43;;;21.50;99.90;;;;;;5012850;28;20187;-69
2023/09/04 08:15:44;;;;;;;6.70;4.60;;;21.40;99.90;;;;;;5012031;28;20861;-70
2023/09/04 08:18:10;;;;;;;4.87;4.37;;;21.60;99.90;;;;;;5012795;28;20292;-70
2023/09/04 08:20:36;;;;;;;5.50;4.60;;;21.70;99.90;;;;;;5011199;28;20486;-70
2023/09/04 08:23:02;;;;;;;4.60;4.30;;;21.60;99.90;;;;;;5012816;28;20599;-69
2023/09/04 08:25:28;;;;;;;7.00;6.20;;;21.50;99.90;;;;;;5013312;28;20164;-69
2023/09/04 08:27:53;;;;;;;4.60;4.20;;;21.40;99.90;;;;;;5012492;28;20805;-71
2023/09/04 08:30:19;;;;;;;4.97;4.47;;;21.30;99.90;;;;;;5012260;28;20178;-70
2023/09/04 08:32:45;;;;;;;4.30;4.00;;;21.40;99.90;;;;;;5012461;28;20274;-71
2023/09/04 08:35:11;;;;;;;5.47;4.97;;;21.40;99.90;;;;;;5012260;28;20189;-71
2023/09/04 08:37:36;;;;;;;6.20;4.77;;;21.40;99.90;;;;;;5028297;22;20223;-72
2023/09/04 08:40:02;;;;;;;4.43;4.07;;;21.40;99.90;;;;;;5013931;28;20407;-71
2023/09/04 08:42:29;;;;;;;4.33;3.90;;;21.60;99.90;;;;;;5014537;28;20230;-70
2023/09/04 08:44:56;;;;;;;4.83;4.20;;;21.60;99.90;;;;;;5012599;28;20176;-71
2023/09/04 08:47:22;;;;;;;5.13;4.60;;;21.80;99.90;;;;;;5027527;28;20426;-70
2023/09/04 08:49:48;;;;;;;5.30;4.80;;;21.90;99.90;;;;;;5033173;28;20402;-71
2023/09/04 08:52:14;;;;;;;3.70;3.40;;;22.10;99.90;;;;;;5032917;28;20821;-71
2023/09/04 08:54:40;;;;;;;5.00;4.57;;;22.20;99.90;;;;;;5032936;28;20168;-71
2023/09/04 08:57:06;;;;;;;4.27;3.97;;;22.20;99.90;;;;;;5019750;28;20187;-70
2023/09/04 08:59:32;;;;;;;4.73;4.33;;;22.30;99.90;;;;;;5013270;28;20403;-70
2023/09/04 09:02:00;;;;;;;4.97;4.47;;;22.50;99.90;;;;;;5013443;28;20422;-71
2023/09/04 09:04:26;;;;;;;5.17;4.67;;;22.70;99.90;;;;;;5016160;28;20171;-70
2023/09/04 09:06:53;;;;;;;4.40;4.10;;;22.80;99.90;;;;;;5023141;28;20450;-70
2023/09/04 09:09:21;;;;;;;5.03;4.50;;;22.70;99.90;;;;;;5013154;28;20403;-70
2023/09/04 09:11:53;;;;;;;4.47;4.10;;;22.80;99.90;;;;;;5013082;28;20571;-72
2023/09/04 09:14:19;;;;;;;6.10;3.90;;;23.00;99.90;;;;;;5013087;28;20453;-70
2023/09/04 09:16:45;;;;;;;4.80;4.40;;;23.20;99.90;;;;;;5022735;28;20432;-70
2023/09/04 09:19:13;;;;;;;4.80;4.40;;;23.20;99.90;;;;;;5032522;28;20490;-70
2023/09/04 09:21:38;;;;;;;4.27;3.90;;;23.20;99.90;;;;;;5032996;28;20251;-70
2023/09/04 09:24:10;;;;;;;4.60;4.23;;;23.00;99.90;;;;;;5032780;28;20434;-70
2023/09/04 09:26:41;;;;;;;4.50;3.97;;;22.90;99.90;;;;;;5024525;28;20682;-70
2023/09/04 09:29:08;;;;;;;4.30;3.97;;;22.90;99.90;;;;;;5013082;28;20477;-70
2023/09/04 09:31:35;;;;;;;4.07;3.77;;;23.00;99.90;;;;;;5012826;28;20924;-71
2023/09/04 09:34:00;;;;;;;4.60;4.20;;;23.20;99.90;;;;;;5013005;28;20752;-70
2023/09/04 09:36:27;;;;;;;4.63;4.23;;;23.40;99.90;;;;;;5019727;28;20412;-71
2023/09/04 09:38:54;;;;;;;4.60;4.20;;;23.60;99.90;;;;;;5032891;28;20155;-71
2023/09/04 09:41:20;;;;;;;4.43;4.03;;;23.70;99.90;;;;;;5032909;28;20399;-70
2023/09/04 09:43:46;;;;;;;6.77;4.20;;;23.80;99.90;;;;;;5032440;28;20743;-71
2023/09/04 09:46:17;;;;;;;4.43;4.03;;;23.80;99.90;;;;;;5017854;28;20402;-70
2023/09/04 09:48:46;;;;;;;4.80;4.40;;;23.90;99.90;;;;;;5032425;28;20191;-70
2023/09/04 09:51:12;;;;;;;4.63;4.23;;;24.00;99.90;;;;;;5033484;28;20884;-71
2023/09/04 09:53:51;;;;;;;4.03;3.73;;;24.20;99.90;;;;;;5032642;28;20519;-71
2023/09/04 09:56:18;;;;;;;4.10;3.70;;;24.20;99.90;;;;;;5027043;28;20465;-71
2023/09/04 09:58:48;;;;;;;4.40;3.90;;;24.10;99.90;;;;;;5012635;28;20411;-70
2023/09/04 10:01:15;;;;;;;3.70;3.40;;;24.30;99.90;;;;;;5012719;28;20844;-70
2023/09/04 10:03:41;;;;;;;4.30;3.90;;;24.50;99.90;;;;;;5012678;28;20439;-71
2023/09/04 10:06:08;;;;;;;4.30;3.30;;;24.50;99.90;;;;;;5016901;28;20584;-72
2023/09/04 10:08:40;;;;;;;4.03;3.63;;;24.70;99.90;;;;;;5032304;28;20169;-72
2023/09/04 10:11:16;;;;;;;4.37;3.93;;;24.80;99.90;;;;;;5032372;28;20393;-72
2023/09/04 10:14:02;;;;;;;4.00;3.70;;;25.00;99.90;;;;;;5016594;28;20442;-71
2023/09/04 10:16:35;;;;;;;4.30;3.87;;;24.90;99.70;;;;;;5006056;28;20422;-70
2023/09/04 10:19:02;;;;;;;3.60;3.30;;;25.00;99.30;;;;;;5032134;28;20436;-70
2023/09/04 10:21:33;;;;;;;4.67;3.80;;;25.00;99.90;;;;;;5032506;28;20448;-71
2023/09/04 10:24:02;;;;;;;4.67;3.60;;;25.00;98.70;;;;;;5032444;28;20370;-71
2023/09/04 10:26:35;;;;;;;4.03;3.70;;;25.10;99.00;;;;;;5025763;28;20431;-71
2023/09/04 10:29:10;;;;;;;4.43;3.40;;;25.10;99.40;;;;;;5012555;28;20375;-70
2023/09/04 10:31:37;;;;;;;3.90;3.60;;;25.20;99.80;;;;;;5012710;28;20379;-70
2023/09/04 10:34:03;;;;;;;4.23;3.83;;;25.20;98.70;;;;;;5012393;28;20411;-72
2023/09/04 10:36:30;;;;;;;4.37;3.97;;;25.30;98.00;;;;;;5017986;28;20426;-70
2023/09/04 10:39:00;;;;;;;3.60;3.30;;;25.30;98.10;;;;;;5032107;28;20160;-71
2023/09/04 10:41:27;;;;;;;3.87;3.17;;;25.60;98.40;;;;;;5032259;28;20402;-71
2023/09/04 10:43:52;;;;;;;3.47;3.00;;;25.80;97.40;;;;;;5031952;28;20418;-72
2023/09/04 10:46:18;;;;;;;3.30;3.10;;;26.00;96.30;;;;;;5021151;28;20520;-72
2023/09/04 10:48:46;;;;;;;3.83;3.43;;;27.10;93.70;;;;;;5035508;28;20242;-72
2023/09/04 10:51:31;;;;;;;5.00;3.63;;;28.00;92.60;;;;;;5035807;28;20413;-71
2023/09/04 10:53:59;;;;;;;3.37;3.17;;;29.10;91.00;;;;;;5035997;28;20496;-72
2023/09/04 10:56:25;;;;;;;3.40;3.10;;;30.20;84.30;;;;;;5030340;28;20742;-71
2023/09/04 10:59:02;;;;;;;7.70;2.90;;;30.10;83.90;;;;;;5015758;28;20403;-71
2023/09/04 11:01:46;;;;;;;3.33;3.03;;;31.60;78.20;;;;;;5015723;28;20172;-71
2023/09/04 11:04:43;;;;;;;3.50;3.07;;;33.70;74.20;;;;;;5022478;28;20409;-71
2023/09/04 11:07:21;;;;;;;3.70;3.33;;;34.10;67.70;;;;;;5022595;28;20517;-71
2023/09/04 11:10:06;;;;;;;2.93;2.73;;;33.40;64.20;;;;;;5015586;28;20790;-72
2023/09/04 11:12:36;;;;;;;3.30;3.00;;;32.80;65.00;;;;;;4994652;28;20498;-71
2023/09/04 11:15:11;;;;;;;2.83;2.63;;;32.70;65.20;;;;;;5015413;28;20415;-70
2023/09/04 11:17:40;;;;;;;3.13;2.83;;;32.90;62.50;;;;;;5030828;28;20476;-72
2023/09/04 11:20:06;;;;;;;3.70;3.40;;;33.70;62.60;;;;;;5035511;28;20399;-71
2023/09/04 11:22:33;;;;;;;3.30;3.00;;;35.20;56.20;;;;;;5038165;28;20492;-71
2023/09/04 11:24:59;;;;;;;3.03;2.83;;;33.10;55.50;;;;;;5035830;28;20406;-71
2023/09/04 11:27:25;;;;;;;3.10;2.80;;;32.40;59.40;;;;;;5021956;28;20842;-71
2023/09/04 11:29:52;;;;;;;3.27;2.97;;;32.20;59.10;;;;;;5015394;28;20168;-70
2023/09/04 11:32:19;;;;;;;3.53;3.23;;;33.20;56.20;;;;;;5013979;28;20451;-70
2023/09/04 11:34:45;;;;;;;2.77;2.47;;;33.30;54.40;;;;;;5014938;28;20407;-71
2023/09/04 11:37:14;;;;;;;3.57;3.10;;;33.70;57.60;;;;;;5026174;28;20515;-71
2023/09/04 11:39:57;;;;;;;4.40;3.20;;;34.10;55.00;;;;;;5034923;28;20416;-71
2023/09/04 11:42:24;;;;;;;2.97;2.77;;;34.10;55.30;;;;;;5034995;28;20408;-72
2023/09/04 11:44:51;;;;;;;3.03;2.73;;;34.20;52.70;;;;;;5026859;28;20468;-72
2023/09/04 11:47:17;;;;;;;2.70;2.50;;;35.30;52.60;;;;;;5028349;28;20575;-71
2023/09/04 11:49:43;;;;;;;3.30;3.00;;;34.20;51.40;;;;;;5034583;28;20406;-71
2023/09/04 11:52:10;;;;;;;2.97;2.70;;;34.00;52.30;;;;;;5035078;28;20442;-71
2023/09/04 11:54:36;;;;;;;3.80;3.00;;;34.70;53.20;;;;;;5033077;28;20167;-72
2023/09/04 11:57:05;;;;;;;3.40;3.10;;;34.10;51.60;;;;;;5024975;28;20426;-71
2023/09/04 11:59:35;;;;;;;3.73;3.40;;;34.20;53.20;;;;;;5014898;28;20168;-71
2023/09/04 12:02:04;;;;;;;3.20;3.00;;;34.80;53.30;;;;;;5015229;28;20545;-71
2023/09/04 12:04:32;;;;;;;2.73;2.47;;;34.90;50.60;;;;;;5014442;28;20391;-71
2023/09/04 12:07:02;;;;;;;3.20;2.93;;;35.10;50.80;;;;;;5023061;28;20426;-70
2023/09/04 12:09:29;;;;;;;3.00;2.70;;;34.70;49.50;;;;;;5034813;28;20398;-69
2023/09/04 12:11:54;;;;;;;2.50;2.30;;;35.10;48.00;;;;;;5034542;28;20758;-72
2023/09/04 12:14:20;;;;;;;2.53;2.33;;;35.00;48.40;;;;;;5030006;28;20514;-72
2023/09/04 12:16:46;;;;;;;3.00;2.60;;;34.30;49.00;;;;;;5021835;28;20539;-71
2023/09/04 12:19:12;;;;;;;2.90;2.70;;;35.10;47.90;;;;;;5032781;28;20637;-72
2023/09/04 12:21:38;;;;;;;3.10;2.87;;;35.30;48.50;;;;;;5034330;28;20176;-71
2023/09/04 12:24:12;;;;;;;3.83;3.10;;;35.30;48.40;;;;;;5034275;28;20167;-72
2023/09/04 12:26:38;;;;;;;2.90;2.60;;;35.50;47.00;;;;;;5028399;28;20433;-72
2023/09/04 12:29:03;;;;;;;2.83;2.63;;;35.80;46.80;;;;;;5014627;28;20411;-72
2023/09/04 12:31:30;;;;;;;2.70;2.50;;;35.30;47.90;;;;;;5014561;28;20178;-72
2023/09/04 12:33:56;;;;;;;2.70;2.50;;;33.90;46.60;;;;;;5014245;28;20211;-71
2023/09/04 12:36:21;;;;;;;3.70;2.60;;;34.10;47.20;;;;;;5017541;28;20402;-73
2023/09/04 12:38:47;;;;;;;3.00;2.60;;;35.20;45.70;;;;;;5034060;28;20171;-71
2023/09/04 12:41:13;;;;;;;3.30;3.00;;;35.10;44.00;;;;;;5034451;28;20179;-71
2023/09/04 12:43:39;;;;;;;3.60;3.30;;;35.20;42.80;;;;;;5033674;28;20888;-72
2023/09/04 12:46:05;;;;;;;2.73;2.50;;;35.40;43.00;;;;;;5016758;28;20183;-72